createdAt,value
2022-08-03T00:02:17.574Z,22.57
2022-08-03T00:04:44.918Z,22.55
2022-08-03T00:07:12.231Z,22.50
2022-08-03T00:09:39.147Z,22.43
2022-08-03T00:12:06.702Z,22.38
2022-08-03T00:14:35.701Z,22.36
2022-08-03T00:17:03.738Z,22.30
2022-08-03T00:19:32.038Z,22.24
2022-08-03T00:21:59.443Z,22.19
2022-08-03T00:24:26.396Z,22.12
2022-08-03T00:26:53.446Z,22.09
2022-08-03T00:29:20.811Z,22.05
2022-08-03T00:31:59.218Z,22.00
2022-08-03T00:34:36.727Z,21.95
2022-08-03T00:37:16.315Z,21.94
2022-08-03T00:39:46.333Z,21.94
2022-08-03T00:42:13.893Z,21.93
2022-08-03T00:44:44.669Z,21.93
2022-08-03T00:47:12.927Z,21.90
2022-08-03T00:49:41.016Z,21.92
2022-08-03T00:52:13.735Z,21.93
2022-08-03T00:54:41.807Z,21.94
2022-08-03T00:57:09.165Z,21.95
2022-08-03T00:59:37.109Z,21.93
2022-08-03T01:02:04.787Z,21.92
2022-08-03T01:04:31.797Z,21.92
2022-08-03T01:07:03.420Z,21.93
2022-08-03T01:09:37.211Z,21.94
2022-08-03T01:12:11.252Z,21.92
2022-08-03T01:14:44.464Z,21.91
2022-08-03T01:17:32.507Z,21.90
2022-08-03T01:20:02.442Z,21.89
2022-08-03T01:22:31.016Z,21.87
2022-08-03T01:25:17.151Z,21.81
2022-08-03T01:28:02.657Z,21.79
2022-08-03T01:30:33.680Z,21.75
2022-08-03T01:33:03.797Z,21.70
2022-08-03T01:35:50.433Z,21.69
2022-08-03T01:38:26.458Z,21.66
2022-08-03T01:40:55.373Z,21.63
2022-08-03T01:44:28.448Z,21.58
2022-08-03T01:46:21.496Z,21.57
2022-08-03T01:48:49.614Z,21.55
2022-08-03T01:51:18.349Z,21.53
2022-08-03T01:53:45.672Z,21.52
2022-08-03T01:56:14.158Z,21.49
2022-08-03T01:58:41.793Z,21.47
2022-08-03T02:01:09.422Z,21.42
2022-08-03T02:03:38.416Z,21.40
2022-08-03T02:06:41.011Z,21.36
2022-08-03T02:09:15.021Z,21.32
2022-08-03T02:11:43.062Z,21.32
2022-08-03T02:14:10.686Z,21.29
2022-08-03T02:16:38.339Z,21.27
2022-08-03T02:19:08.562Z,21.25
2022-08-03T02:21:56.803Z,21.23
2022-08-03T02:24:26.092Z,21.24
2022-08-03T02:26:54.272Z,21.24
2022-08-03T02:29:39.213Z,21.21
2022-08-03T02:32:20.810Z,21.17
2022-08-03T02:34:49.480Z,21.10
2022-08-03T02:37:19.020Z,21.03
2022-08-03T02:39:47.104Z,20.96
2022-08-03T02:42:15.735Z,20.91
2022-08-03T02:44:48.043Z,20.93
2022-08-03T02:47:16.206Z,20.93
2022-08-03T02:49:50.598Z,20.96
2022-08-03T02:52:23.523Z,20.97
2022-08-03T02:54:55.581Z,20.98
2022-08-03T02:57:23.890Z,20.96
2022-08-03T02:59:53.620Z,20.94
2022-08-03T03:02:21.222Z,20.92
2022-08-03T03:05:54.490Z,20.89
2022-08-03T03:08:01.640Z,20.88
2022-08-03T03:10:29.782Z,20.86
2022-08-03T03:12:58.394Z,20.85
2022-08-03T03:15:26.845Z,20.83
2022-08-03T03:17:56.891Z,20.82
2022-08-03T03:20:28.959Z,20.82
2022-08-03T03:23:01.708Z,20.80
2022-08-03T03:25:32.398Z,20.77
2022-08-03T03:28:02.092Z,20.76
2022-08-03T03:30:30.920Z,20.72
2022-08-03T03:32:59.071Z,20.69
2022-08-03T03:35:28.846Z,20.69
2022-08-03T03:37:56.614Z,20.67
2022-08-03T03:40:24.681Z,20.67
2022-08-03T03:42:52.732Z,20.67
2022-08-03T03:45:20.874Z,20.67
2022-08-03T03:47:47.819Z,20.64
2022-08-03T03:50:15.596Z,20.63
2022-08-03T03:52:42.529Z,20.63
2022-08-03T03:55:10.077Z,20.63
2022-08-03T03:57:39.061Z,20.62
2022-08-03T04:00:09.026Z,20.63
2022-08-03T04:02:36.088Z,20.62
2022-08-03T04:05:24.595Z,20.62
2022-08-03T04:08:13.544Z,20.63
2022-08-03T04:11:00.562Z,20.67
2022-08-03T04:13:30.534Z,20.70
2022-08-03T04:16:00.332Z,20.72
2022-08-03T04:18:29.761Z,20.76
2022-08-03T04:20:59.610Z,20.79
2022-08-03T04:23:28.491Z,20.82
2022-08-03T04:25:57.019Z,20.82
2022-08-03T04:28:30.407Z,20.85
2022-08-03T04:31:00.387Z,20.90
2022-08-03T04:33:30.310Z,20.96
2022-08-03T04:36:03.831Z,21.03
2022-08-03T04:38:39.048Z,21.06
2022-08-03T04:41:07.843Z,21.10
2022-08-03T04:43:37.170Z,21.14
2022-08-03T04:46:04.990Z,21.20
2022-08-03T04:48:32.047Z,21.24
2022-08-03T04:51:00.941Z,21.29
2022-08-03T04:53:27.851Z,21.33
2022-08-03T04:55:55.358Z,21.38
2022-08-03T04:58:23.019Z,21.44
2022-08-03T05:00:52.589Z,21.49
2022-08-03T05:03:20.105Z,21.51
2022-08-03T05:05:53.497Z,21.57
2022-08-03T05:08:29.748Z,21.65
2022-08-03T05:11:00.700Z,21.70
2022-08-03T05:13:28.403Z,21.78
2022-08-03T05:15:55.513Z,21.85
2022-08-03T05:18:23.139Z,21.90
2022-08-03T05:20:50.207Z,22.02
2022-08-03T05:23:17.204Z,22.32
2022-08-03T05:27:37.009Z,23.14
2022-08-03T05:30:30.886Z,23.97
2022-08-03T05:32:52.229Z,24.87
2022-08-03T05:36:02.258Z,25.31
2022-08-03T05:38:09.235Z,26.41
2022-08-03T05:40:38.525Z,28.26
2022-08-03T05:43:08.042Z,29.88
2022-08-03T05:45:36.657Z,30.54
2022-08-03T05:48:05.208Z,31.14
2022-08-03T05:50:32.255Z,32.20
2022-08-03T05:52:59.825Z,33.40
2022-08-03T05:55:27.682Z,34.21
2022-08-03T05:57:56.850Z,34.96
2022-08-03T06:00:25.724Z,35.46
2022-08-03T06:02:53.122Z,35.82
2022-08-03T06:05:20.154Z,35.85
2022-08-03T06:07:47.385Z,36.16
2022-08-03T06:10:34.983Z,36.75
2022-08-03T06:13:07.669Z,36.66
2022-08-03T06:15:35.666Z,36.99
2022-08-03T06:18:05.064Z,37.47
2022-08-03T06:20:34.519Z,37.38
2022-08-03T06:23:02.889Z,37.11
2022-08-03T06:25:31.443Z,36.63
2022-08-03T06:27:59.517Z,37.14
2022-08-03T06:30:32.284Z,37.64
2022-08-03T06:32:59.835Z,36.37
2022-08-03T06:35:28.310Z,36.22
2022-08-03T06:37:56.239Z,35.96
2022-08-03T06:40:31.520Z,36.17
2022-08-03T06:42:59.823Z,36.72
2022-08-03T06:45:26.924Z,36.73
2022-08-03T06:48:11.014Z,36.59
2022-08-03T06:50:44.634Z,36.85
2022-08-03T06:53:18.292Z,36.10
2022-08-03T06:55:54.250Z,35.91
2022-08-03T06:58:22.528Z,35.77
2022-08-03T07:00:49.596Z,35.81
2022-08-03T07:03:16.600Z,35.15
2022-08-03T07:05:44.124Z,35.23
2022-08-03T07:08:11.121Z,35.14
2022-08-03T07:10:38.159Z,35.14
2022-08-03T07:13:05.709Z,34.87
2022-08-03T07:15:54.434Z,34.41
2022-08-03T07:18:29.087Z,34.52
2022-08-03T07:20:57.707Z,34.93
2022-08-03T07:23:26.135Z,34.53
2022-08-03T07:25:57.992Z,34.72
2022-08-03T07:28:25.383Z,34.59
2022-08-03T07:30:54.430Z,34.92
2022-08-03T07:33:21.474Z,35.14
2022-08-03T07:35:48.895Z,35.18
2022-08-03T07:38:20.920Z,35.14
2022-08-03T07:40:48.319Z,35.27
2022-08-03T07:43:15.192Z,35.11
2022-08-03T07:45:42.363Z,34.82
2022-08-03T07:48:12.367Z,34.60
2022-08-03T07:50:39.588Z,34.01
2022-08-03T07:53:06.870Z,33.66
2022-08-03T07:55:34.016Z,33.21
2022-08-03T07:58:02.453Z,33.35
2022-08-03T08:00:30.018Z,33.51
2022-08-03T08:02:57.370Z,33.42
2022-08-03T08:05:25.269Z,33.74
2022-08-03T08:07:54.174Z,34.38
2022-08-03T08:10:21.181Z,34.77
2022-08-03T08:12:48.741Z,34.89
2022-08-03T08:15:16.237Z,35.21
2022-08-03T08:17:48.482Z,35.32
2022-08-03T08:20:21.745Z,35.27
2022-08-03T08:22:58.156Z,35.16
2022-08-03T08:25:26.077Z,34.94
2022-08-03T08:28:29.707Z,34.73
2022-08-03T08:30:42.170Z,34.71
2022-08-03T08:33:22.340Z,34.60
2022-08-03T08:35:53.517Z,34.48
2022-08-03T08:38:21.045Z,34.44
2022-08-03T08:40:49.212Z,34.38
2022-08-03T08:43:16.600Z,34.24
2022-08-03T08:45:44.244Z,34.21
2022-08-03T08:48:14.008Z,34.06
2022-08-03T08:50:41.946Z,34.17
2022-08-03T08:53:18.954Z,34.53
2022-08-03T08:55:58.601Z,34.49
2022-08-03T08:58:37.113Z,34.00
2022-08-03T09:01:04.975Z,34.02
2022-08-03T09:03:33.439Z,34.09
2022-08-03T09:06:01.137Z,33.99
2022-08-03T09:08:32.127Z,33.96
2022-08-03T09:10:59.555Z,33.77
2022-08-03T09:13:29.639Z,33.33
2022-08-03T09:16:17.326Z,33.36
2022-08-03T09:18:46.765Z,33.59
2022-08-03T09:21:33.520Z,33.72
2022-08-03T09:24:04.822Z,33.52
2022-08-03T09:26:34.477Z,33.15
2022-08-03T09:29:08.186Z,32.85
2022-08-03T09:31:43.751Z,33.05
2022-08-03T09:34:13.007Z,33.30
2022-08-03T09:36:41.682Z,33.21
2022-08-03T09:39:14.618Z,33.10
2022-08-03T09:41:45.515Z,33.15
2022-08-03T09:44:24.427Z,33.01
2022-08-03T09:46:59.176Z,32.78
2022-08-03T09:49:26.814Z,32.57
2022-08-03T09:52:31.643Z,32.39
2022-08-03T09:54:42.500Z,32.33
2022-08-03T09:57:21.042Z,32.14
2022-08-03T09:59:49.008Z,32.16
2022-08-03T10:02:26.647Z,32.29
2022-08-03T10:04:54.598Z,32.07
2022-08-03T10:07:24.671Z,32.11
2022-08-03T10:09:55.720Z,32.06
2022-08-03T10:12:23.378Z,31.74
2022-08-03T10:14:52.426Z,31.42
2022-08-03T10:17:20.400Z,31.15
2022-08-03T10:19:48.974Z,31.03
2022-08-03T10:22:24.954Z,31.02
2022-08-03T10:24:59.388Z,30.76
2022-08-03T10:27:27.631Z,30.72
2022-08-03T10:29:59.033Z,30.83
2022-08-03T10:32:26.535Z,30.83
2022-08-03T10:35:00.211Z,30.85
2022-08-03T10:37:33.800Z,31.03
2022-08-03T10:40:00.987Z,30.76
2022-08-03T10:42:31.466Z,30.55
2022-08-03T10:45:10.184Z,30.53
2022-08-03T10:47:38.419Z,30.61
2022-08-03T10:50:06.312Z,30.63
2022-08-03T10:52:36.060Z,30.52
2022-08-03T10:55:58.998Z,30.50
2022-08-03T10:58:57.093Z,30.68
2022-08-03T11:01:59.024Z,30.54
2022-08-03T11:04:30.158Z,30.48
2022-08-03T11:07:18.352Z,30.45
2022-08-03T11:09:50.748Z,30.52
2022-08-03T11:12:37.452Z,30.64
2022-08-03T11:15:09.762Z,30.76
2022-08-03T11:17:46.596Z,30.83
2022-08-03T11:20:41.738Z,30.71
2022-08-03T11:23:09.367Z,30.55
2022-08-03T11:25:55.454Z,30.53
2022-08-03T11:28:26.430Z,30.50
2022-08-03T11:30:54.188Z,30.49
2022-08-03T11:33:30.713Z,30.60
2022-08-03T11:35:59.891Z,30.59
2022-08-03T11:38:26.778Z,30.52
2022-08-03T11:40:54.579Z,30.45
2022-08-03T11:43:22.723Z,30.46
2022-08-03T11:46:00.130Z,30.44
2022-08-03T11:48:34.442Z,30.37
2022-08-03T11:51:02.427Z,30.28
2022-08-03T11:53:30.658Z,30.18
2022-08-03T11:56:01.734Z,30.22
2022-08-03T11:59:17.420Z,30.19
2022-08-03T12:01:23.158Z,30.23
2022-08-03T12:03:50.981Z,30.34
2022-08-03T12:06:19.083Z,30.38
2022-08-03T12:08:46.593Z,30.40
2022-08-03T12:11:15.242Z,30.48
2022-08-03T12:14:43.764Z,30.52
2022-08-03T12:16:34.607Z,30.48
2022-08-03T12:19:02.574Z,30.41
2022-08-03T12:21:30.054Z,30.29
2022-08-03T12:24:00.822Z,30.27
2022-08-03T12:26:28.845Z,30.37
2022-08-03T12:28:55.841Z,30.51
2022-08-03T12:31:23.178Z,30.56
2022-08-03T12:34:03.624Z,30.65
2022-08-03T12:36:32.512Z,30.68
2022-08-03T12:39:00.948Z,30.67
2022-08-03T12:41:30.044Z,30.65
2022-08-03T12:43:57.786Z,30.70
2022-08-03T12:46:30.016Z,30.63
2022-08-03T12:49:04.691Z,30.73
2022-08-03T12:51:54.771Z,30.82
2022-08-03T12:54:29.653Z,30.82
2022-08-03T12:56:57.325Z,30.83
2022-08-03T12:59:32.147Z,30.85
2022-08-03T13:02:02.891Z,30.84
2022-08-03T13:04:34.199Z,30.88
2022-08-03T13:07:05.123Z,30.94
2022-08-03T13:09:43.735Z,30.99
2022-08-03T13:12:11.998Z,31.08
2022-08-03T13:14:39.343Z,31.12
2022-08-03T13:17:06.703Z,31.11
2022-08-03T13:19:34.215Z,31.19
2022-08-03T13:22:04.694Z,31.28
2022-08-03T13:24:33.409Z,31.40
2022-08-03T13:28:02.597Z,31.43
2022-08-03T13:29:57.892Z,31.44
2022-08-03T13:32:26.529Z,31.41
2022-08-03T13:34:53.673Z,31.43
2022-08-03T13:37:21.909Z,31.43
2022-08-03T13:39:59.169Z,31.47
2022-08-03T13:42:28.597Z,31.54
2022-08-03T13:44:58.902Z,31.45
2022-08-03T13:47:26.266Z,31.42
2022-08-03T13:50:00.497Z,31.28
2022-08-03T13:52:32.940Z,31.32
2022-08-03T13:55:00.453Z,31.26
2022-08-03T13:58:05.100Z,31.15
2022-08-03T14:00:27.434Z,31.08
2022-08-03T14:03:12.607Z,31.03
2022-08-03T14:05:41.330Z,31.03
2022-08-03T14:08:08.271Z,31.09
2022-08-03T14:10:39.296Z,30.94
2022-08-03T14:13:07.046Z,30.84
2022-08-03T14:15:37.275Z,30.81
2022-08-03T14:18:07.186Z,30.89
2022-08-03T14:20:50.287Z,30.87
2022-08-03T14:23:21.957Z,30.85
2022-08-03T14:25:51.690Z,30.89
2022-08-03T14:28:23.337Z,30.90
2022-08-03T14:30:51.544Z,30.96
2022-08-03T14:33:18.868Z,31.01
2022-08-03T14:35:46.093Z,31.03
2022-08-03T14:38:13.709Z,31.09
2022-08-03T14:40:40.745Z,31.17
2022-08-03T14:43:07.806Z,31.22
2022-08-03T14:45:35.686Z,31.22
2022-08-03T14:50:34.483Z,31.23
2022-08-03T14:50:52.908Z,31.22
2022-08-03T14:53:20.111Z,31.21
2022-08-03T14:55:50.918Z,31.16
2022-08-03T14:58:21.008Z,31.07
2022-08-03T15:00:49.225Z,30.98
2022-08-03T15:03:16.865Z,30.90
2022-08-03T15:05:45.515Z,30.84
2022-08-03T15:08:12.491Z,30.81
2022-08-03T15:10:40.406Z,30.85
2022-08-03T15:13:13.262Z,30.80
2022-08-03T15:15:43.539Z,30.75
2022-08-03T15:18:10.786Z,30.63
2022-08-03T15:20:45.012Z,30.62
2022-08-03T15:23:13.653Z,30.55
2022-08-03T15:26:31.812Z,30.49
2022-08-03T15:28:32.424Z,30.45
2022-08-03T15:31:00.188Z,30.36
2022-08-03T15:33:27.093Z,30.30
2022-08-03T15:35:54.178Z,30.28
2022-08-03T15:38:25.835Z,30.26
2022-08-03T15:40:54.800Z,30.25
2022-08-03T15:43:23.125Z,30.25
2022-08-03T15:46:12.702Z,30.26
2022-08-03T15:48:37.986Z,30.21
2022-08-03T15:51:05.515Z,30.16
2022-08-03T15:53:33.370Z,30.08
2022-08-03T15:56:01.095Z,30.03
2022-08-03T15:58:59.646Z,29.99
2022-08-03T16:01:19.825Z,29.95
2022-08-03T16:03:47.220Z,29.98
2022-08-03T16:06:14.348Z,29.97
2022-08-03T16:08:42.071Z,29.99
2022-08-03T16:11:11.407Z,30.00
2022-08-03T16:14:13.873Z,29.98
2022-08-03T16:16:27.178Z,29.99
2022-08-03T16:18:54.507Z,30.00
2022-08-03T16:21:21.810Z,30.00
2022-08-03T16:23:55.335Z,30.01
2022-08-03T16:26:29.382Z,30.03
2022-08-03T16:29:01.828Z,30.04
2022-08-03T16:31:31.765Z,30.07
2022-08-03T16:33:59.040Z,30.11
2022-08-03T16:36:34.705Z,30.18
2022-08-03T16:39:02.165Z,30.24
2022-08-03T16:41:53.923Z,30.31
2022-08-03T16:44:18.143Z,30.38
2022-08-03T16:46:46.037Z,30.42
2022-08-03T16:49:13.331Z,30.47
2022-08-03T16:52:00.997Z,30.51
2022-08-03T16:54:28.474Z,30.53
2022-08-03T16:56:56.391Z,30.56
2022-08-03T16:59:36.057Z,30.58
2022-08-03T17:02:09.715Z,30.59
2022-08-03T17:04:40.152Z,30.53
2022-08-03T17:07:18.794Z,30.50
2022-08-03T17:09:47.251Z,30.45
2022-08-03T17:12:14.494Z,30.40
2022-08-03T17:14:42.224Z,30.36
2022-08-03T17:17:17.011Z,30.31
2022-08-03T17:19:47.071Z,30.26
2022-08-03T17:22:18.061Z,30.27
2022-08-03T17:24:50.995Z,30.22
2022-08-03T17:28:51.563Z,30.14
2022-08-03T17:30:15.841Z,30.08
2022-08-03T17:32:56.654Z,30.04
2022-08-03T17:35:36.746Z,29.97
2022-08-03T17:38:10.365Z,29.89
2022-08-03T17:40:39.731Z,29.82
2022-08-03T17:48:54.151Z,29.56
2022-08-03T17:51:26.851Z,29.48
2022-08-03T17:54:18.077Z,29.43
2022-08-03T17:57:10.298Z,29.31
2022-08-03T18:00:27.066Z,29.21
2022-08-03T18:03:15.995Z,29.11
2022-08-03T18:06:11.943Z,29.02
2022-08-03T18:08:54.591Z,28.94
2022-08-03T18:11:23.442Z,28.85
2022-08-03T18:13:58.041Z,28.75
2022-08-03T18:16:39.163Z,28.67
2022-08-03T18:19:14.442Z,28.60
2022-08-03T18:22:02.766Z,28.53
2022-08-03T18:24:30.110Z,28.45
2022-08-03T18:26:59.038Z,28.35
2022-08-03T18:29:26.132Z,28.31
2022-08-03T18:32:02.530Z,28.22
2022-08-03T18:34:34.253Z,28.16
2022-08-03T18:37:07.239Z,28.06
2022-08-03T18:39:50.164Z,28.00
2022-08-03T18:42:25.754Z,27.90
2022-08-03T18:44:56.491Z,27.80
2022-08-03T18:47:50.956Z,27.75
2022-08-03T18:50:26.527Z,27.67
2022-08-03T18:53:15.659Z,27.61
2022-08-03T18:56:02.008Z,27.53
2022-08-03T18:58:30.180Z,27.44
2022-08-03T19:01:00.327Z,27.40
2022-08-03T19:03:43.455Z,27.37
2022-08-03T19:06:19.773Z,27.30
2022-08-03T19:09:02.357Z,27.27
2022-08-03T19:12:12.431Z,27.22
2022-08-03T19:14:43.526Z,27.10
2022-08-03T19:17:12.018Z,27.04
2022-08-03T19:19:44.902Z,27.01
2022-08-03T19:22:16.188Z,26.98
2022-08-03T19:24:47.770Z,26.93
2022-08-03T19:27:16.108Z,26.87
2022-08-03T19:29:58.797Z,26.82
2022-08-03T19:32:30.352Z,26.76
2022-08-03T19:34:59.643Z,26.70
2022-08-03T19:37:38.210Z,26.66
2022-08-03T19:40:10.748Z,26.61
2022-08-03T19:42:40.756Z,26.55
2022-08-03T19:45:11.180Z,26.48
2022-08-03T19:48:10.026Z,26.41
2022-08-03T19:50:37.897Z,26.37
2022-08-03T19:53:12.941Z,26.34
2022-08-03T19:55:48.847Z,26.32
2022-08-03T19:58:17.781Z,26.29
2022-08-03T20:00:52.401Z,26.24
2022-08-03T20:03:22.051Z,26.17
2022-08-03T20:05:55.028Z,26.14
2022-08-03T20:08:22.249Z,26.10
2022-08-03T20:10:49.533Z,26.06
2022-08-03T20:13:19.510Z,26.01
2022-08-03T20:15:46.571Z,25.97
2022-08-03T20:18:16.576Z,25.91
2022-08-03T20:20:45.760Z,25.85
2022-08-03T20:23:16.429Z,25.80
2022-08-03T20:25:57.035Z,25.77
2022-08-03T20:28:52.270Z,25.74
2022-08-03T20:31:25.131Z,25.70
2022-08-03T20:33:59.855Z,25.68
2022-08-03T20:36:27.101Z,25.63
2022-08-03T20:38:57.624Z,25.59
2022-08-03T20:41:25.107Z,25.55
2022-08-03T20:43:52.216Z,25.51
2022-08-03T20:46:29.055Z,25.44
2022-08-03T20:49:07.030Z,25.37
2022-08-03T20:51:49.073Z,25.33
2022-08-03T20:54:23.016Z,25.26
2022-08-03T20:56:57.993Z,25.19
2022-08-03T20:59:38.526Z,25.10
2022-08-03T21:02:19.199Z,25.03
2022-08-03T21:04:47.449Z,25.00
2022-08-03T21:07:19.786Z,24.96
2022-08-03T21:09:55.895Z,24.91
2022-08-03T21:12:29.803Z,24.86
2022-08-03T21:13:04.092Z,29.62
2022-08-03T21:13:05.637Z,29.73
2022-08-03T21:15:03.245Z,24.81
2022-08-03T21:17:40.332Z,24.75
2022-08-03T21:20:12.416Z,24.64
2022-08-03T21:22:42.511Z,24.51
2022-08-03T21:25:10.427Z,24.40
2022-08-03T21:27:38.073Z,24.33
2022-08-03T21:30:06.735Z,24.30
2022-08-03T21:32:34.240Z,24.28
2022-08-03T21:35:01.345Z,24.20
2022-08-03T21:37:29.844Z,24.17
2022-08-03T21:39:57.078Z,24.15
2022-08-03T21:42:24.025Z,24.15
2022-08-03T21:44:51.794Z,24.08
2022-08-03T21:47:21.030Z,24.04
2022-08-03T21:50:05.026Z,24.01
2022-08-03T21:52:39.781Z,23.96
2022-08-03T21:55:06.895Z,23.93
2022-08-03T21:57:34.369Z,23.90
2022-08-03T22:00:10.552Z,23.88
2022-08-03T22:02:55.257Z,23.84
2022-08-03T22:05:29.056Z,23.78
2022-08-03T22:08:09.989Z,23.76
2022-08-03T22:10:37.140Z,23.70
2022-08-03T22:13:05.274Z,23.66
2022-08-03T22:15:32.542Z,23.63
2022-08-03T22:18:03.539Z,23.64
2022-08-03T22:20:30.491Z,23.59
2022-08-03T22:22:59.998Z,23.52
2022-08-03T22:25:31.493Z,23.49
2022-08-03T22:28:02.353Z,23.45
2022-08-03T22:30:29.743Z,23.39
2022-08-03T22:32:57.650Z,23.35
2022-08-03T22:35:25.841Z,23.31
2022-08-03T22:37:54.497Z,23.27
2022-08-03T22:40:21.742Z,23.27
2022-08-03T22:42:51.328Z,23.28
2022-08-03T22:46:05.898Z,23.29
2022-08-03T22:48:08.289Z,23.29
2022-08-03T22:50:35.908Z,23.24
2022-08-03T22:53:02.914Z,23.24
2022-08-03T22:55:29.867Z,23.23
2022-08-03T22:57:57.012Z,23.20
2022-08-03T23:00:24.028Z,23.21
2022-08-03T23:02:54.033Z,23.20
2022-08-03T23:06:00.476Z,23.21
2022-08-03T23:08:09.834Z,23.16
2022-08-03T23:10:38.030Z,23.16
2022-08-03T23:13:05.417Z,23.13
2022-08-03T23:15:32.975Z,23.11
2022-08-03T23:18:03.251Z,23.08
2022-08-03T23:20:30.756Z,23.05
2022-08-03T23:22:59.339Z,23.01
2022-08-03T23:25:26.683Z,22.99
2022-08-03T23:28:04.821Z,22.93
2022-08-03T23:30:34.527Z,22.91
2022-08-03T23:33:02.992Z,22.86
2022-08-03T23:36:27.979Z,22.82
2022-08-03T23:38:36.490Z,22.74
2022-08-03T23:41:04.144Z,22.71
2022-08-03T23:43:51.011Z,22.67
2022-08-03T23:46:21.268Z,22.62
2022-08-03T23:48:48.310Z,22.60
2022-08-03T23:51:23.615Z,22.58
2022-08-03T23:54:01.939Z,22.56
2022-08-03T23:56:37.190Z,22.55
2022-08-03T23:59:04.310Z,22.55
